Página principal
METAR-TAF:

METAR-TAF

Aeroportos :

Plataforma petrolífera

Snorre A, Noruega

latitude: 61-27N, longitude: 2-09E, altura: 10 m

Observação actual do tempo

O boletim foi feito há 54 minutos, às 12:50 UTC
Vento 14 kt de es-nordeste com rajadas de 25 kt
Temperatura 6°C
Humidade 87%
Pressão 1005 hPa
Visibilidade 10 km ou mais
sem nuvens abaixo de 1500 metros e sem cumulonimbus

METAR: ENSE 021250Z AUTO 07014G25KT CAVOK 06/04 Q1005 W///S4

Hora: 14:44 (13:44 UTC)


TAF: em falta

Observações e previsões do tempo de mais de 4000 aeroportos (mensagens METAR e TAF).

As estações disponíveis são os pontos amarelos e vermelhos sobre o mapa.

Mova o rato sobre o mapa para ver o nome da estação.

Depois clique no ponto para visualizar as observações e previsões meteorológicas.

Para alterar o mapa : clique nos botões verdes com uma cruz preta para aumentar o zoom; no botão verde com uma pitada de zoom; ou nas setas verdes para mapas adjacentes.


METAR-TAF: